Air Quality Table

TIMESTAMP NO2 SO2 O3 PM10 PM2.5 CO TEMP HUM AIRPRES WS WD NO BENZENE
2022-01-21 06:00 59.41 µg/m3 0.98 µg/m3 4.65 µg/m3 28.8 µg/m3 19.37 µg/m3 0.59 mg/m3 10.21 °C 75.01 % 1,021.05 mbar 0.79 m/s 237.45 Deg 52.29 µg/m3 3.7 µg/m3
2022-01-21 05:00 45.55 µg/m3 0.31 µg/m3 15.73 µg/m3 18.84 µg/m3 12.92 µg/m3 0.26 mg/m3 10.83 °C 72.19 % 1,021.16 mbar 0.38 m/s 245.44 Deg 11.16 µg/m3 1.47 µg/m3
2022-01-21 04:00 19.59 µg/m3 0.14 µg/m3 62.45 µg/m3 14.22 µg/m3 9.93 µg/m3 0.21 mg/m3 11.29 °C 68.25 % 1,021.51 mbar 0.51 m/s 246.73 Deg 0.31 µg/m3 1.23 µg/m3
2022-01-21 03:00 20.45 µg/m3 0.22 µg/m3 47.21 µg/m3 17.79 µg/m3 13.24 µg/m3 0.22 mg/m3 11.43 °C 70.22 % 1,022.02 mbar 0.13 m/s 236.09 Deg -0.05 µg/m3 1.47 µg/m3
2022-01-21 02:00 23.82 µg/m3 0.31 µg/m3 49.85 µg/m3 17.81 µg/m3 13.1 µg/m3 0.23 mg/m3 11.42 °C 70.67 % 1,022.20 mbar 0.69 m/s 244.8 Deg 5.96 µg/m3 1.29 µg/m3
2022-01-21 01:00 20.57 µg/m3 0.27 µg/m3 57.73 µg/m3 17.91 µg/m3 13.11 µg/m3 0.26 mg/m3 11.82 °C 71.63 % 1,022.60 mbar 1.04 m/s 235.37 Deg 0.52 µg/m3 2.2 µg/m3
2022-01-21 00:00 56.68 µg/m3 0.81 µg/m3 9.35 µg/m3 45.37 µg/m3 30.76 µg/m3 0.79 mg/m3 11.76 °C 73.58 % 1,023.09 mbar 0.6 m/s 240.57 Deg 25 µg/m3 7.12 µg/m3
2022-01-20 23:00 63.39 µg/m3 1 µg/m3 3.41 µg/m3 51.43 µg/m3 34.38 µg/m3 0.84 mg/m3 11.64 °C 72.99 % 1,023.38 mbar 0.43 m/s 240.28 Deg 44.73 µg/m3 5.46 µg/m3
2022-01-20 22:00 68.98 µg/m3 1.13 µg/m3 3.64 µg/m3 46.78 µg/m3 30.88 µg/m3 0.88 mg/m3 11.82 °C 71.29 % 1,023.51 mbar 0.72 m/s 236.25 Deg 49.47 µg/m3 6.77 µg/m3
2022-01-20 21:00 72.13 µg/m3 0.72 µg/m3 9.58 µg/m3 52.28 µg/m3 24.79 µg/m3 0.72 mg/m3 12.4 °C 67.94 % 1,023.45 mbar 0.71 m/s 230.03 Deg 22.71 µg/m3 4.91 µg/m3
2022-01-20 20:00 66.45 µg/m3 0.53 µg/m3 18.39 µg/m3 47.71 µg/m3 21.73 µg/m3 0.56 mg/m3 12.91 °C 66.67 % 1,023.50 mbar 0.74 m/s 229.18 Deg 10.88 µg/m3 3.97 µg/m3
2022-01-20 19:00 68.97 µg/m3 0.7 µg/m3 13.84 µg/m3 45.05 µg/m3 17.82 µg/m3 0.56 mg/m3 13.44 °C 66.56 % 1,023.44 mbar 0.79 m/s 228.98 Deg 16.03 µg/m3 3.2 µg/m3
2022-01-20 18:00 50.14 µg/m3 0.66 µg/m3 32.82 µg/m3 35.58 µg/m3 12.54 µg/m3 0.4 mg/m3 13.81 °C 63.97 % 1,023.33 mbar 1.31 m/s 234.87 Deg 8.52 µg/m3 2.13 µg/m3
2022-01-20 17:00 42.08 µg/m3 0.84 µg/m3 45.42 µg/m3 29.64 µg/m3 10.48 µg/m3 0.37 mg/m3 14.3 °C 62.8 % 1,023.36 mbar 1.68 m/s 251.35 Deg 10.04 µg/m3 2.05 µg/m3
2022-01-20 16:00 30.12 µg/m3 2.48 µg/m3 57.21 µg/m3 26.23 µg/m3 9.24 µg/m3 0.3 mg/m3 14.62 °C 60.18 % 1,023.46 mbar 1.81 m/s 251.42 Deg 6.94 µg/m3 1.07 µg/m3
2022-01-20 15:00 25.49 µg/m3 0 µg/m3 62.34 µg/m3 27.17 µg/m3 9.59 µg/m3 0.26 mg/m3 15 °C 58.48 % 1,023.82 mbar 1.7 m/s 254.78 Deg 8.6 µg/m3 0.94 µg/m3
2022-01-20 14:00 24.71 µg/m3 0 µg/m3 61.97 µg/m3 26.62 µg/m3 8.38 µg/m3 0.25 mg/m3 14.96 °C 58.5 % 1,024.41 mbar 2.14 m/s 251.42 Deg 6.94 µg/m3 1.03 µg/m3
2022-01-20 13:00 28.89 µg/m3 0 µg/m3 56.62 µg/m3 26.87 µg/m3 9.97 µg/m3 0.29 mg/m3 14.24 °C 66.76 % 1,025.17 mbar 1.84 m/s 252.75 Deg 9.08 µg/m3 1.57 µg/m3
2022-01-20 12:00 33.29 µg/m3 0 µg/m3 50.68 µg/m3 40.99 µg/m3 11.56 µg/m3 0.29 mg/m3 14.53 °C 68.12 % 1,026.13 mbar 1.48 m/s 276.78 Deg 13.25 µg/m3 1.52 µg/m3
2022-01-20 11:00 29.48 µg/m3 0 µg/m3 56.88 µg/m3 20.14 µg/m3 8.12 µg/m3 0.28 mg/m3 14.75 °C 64.87 % 1,026.47 mbar 1.83 m/s 210.23 Deg 12.64 µg/m3 2.47 µg/m3
2022-01-20 10:00 72.07 µg/m3 0 µg/m3 22.04 µg/m3 108.85 µg/m3 32.75 µg/m3 0.71 mg/m3 14.47 °C 70.94 % 1,026.44 mbar 0.61 m/s 185.76 Deg 91.74 µg/m3 8.14 µg/m3
2022-01-20 09:00 78.98 µg/m3 3.55 µg/m3 4.32 µg/m3 68.46 µg/m3 33.96 µg/m3 1.28 mg/m3 12.19 °C 77.68 % 1,026.38 mbar 0.71 m/s 219.44 Deg 164.16 µg/m3 11.13 µg/m3
2022-01-20 08:00 69.39 µg/m3 4.09 µg/m3 2.85 µg/m3 44.88 µg/m3 29.92 µg/m3 1.54 mg/m3 10.92 °C 82.13 % 1,026.61 mbar 0.5 m/s 235.53 Deg 197.48 µg/m3 14.12 µg/m3
2022-01-20 07:00 61.72 µg/m3 2.58 µg/m3 3.15 µg/m3 30.75 µg/m3 20.51 µg/m3 1.11 mg/m3 10.88 °C 82.98 % 1,026.63 mbar 0.59 m/s 235.67 Deg 117.88 µg/m3 6.72 µg/m3
2022-01-20 06:00 43.85 µg/m3 1 µg/m3 12.99 µg/m3 17.01 µg/m3 11.47 µg/m3 0.4 mg/m3 11.02 °C 83.33 % 1,026.51 mbar 0.79 m/s 233.63 Deg 16.48 µg/m3 2.29 µg/m3
2022-01-20 05:00 19.39 µg/m3 0.75 µg/m3 36.63 µg/m3 12.85 µg/m3 9.32 µg/m3 0.26 mg/m3 11.34 °C 82.74 % 1,026.65 mbar 0.88 m/s 242.93 Deg 1.41 µg/m3 1.97 µg/m3
2022-01-20 04:00 16.94 µg/m3 0.77 µg/m3 30.75 µg/m3 17.24 µg/m3 13.26 µg/m3 0.34 mg/m3 11.84 °C 82.03 % 1,027.15 mbar 0.7 m/s 244.55 Deg 0.62 µg/m3 2.52 µg/m3
2022-01-20 03:00 16.37 µg/m3 0.81 µg/m3 32.16 µg/m3 17.05 µg/m3 13.13 µg/m3 0.26 mg/m3 11.6 °C 81.89 % 1,027.65 mbar 0.82 m/s 238.47 Deg 0.21 µg/m3 2.47 µg/m3
2022-01-20 02:00 26.12 µg/m3 0.74 µg/m3 26.21 µg/m3 20.54 µg/m3 15.34 µg/m3 0.36 mg/m3 11.38 °C 81.77 % 1,027.98 mbar 0.85 m/s 240.05 Deg 1.26 µg/m3 2.89 µg/m3
2022-01-20 01:00 40.69 µg/m3 0.89 µg/m3 11.52 µg/m3 28.85 µg/m3 20.46 µg/m3 0.55 mg/m3 11.36 °C 82.82 % 1,028.29 mbar 0.59 m/s 236.77 Deg 5.78 µg/m3 3.96 µg/m3
2022-01-20 00:00 50.64 µg/m3 1.23 µg/m3 6.2 µg/m3 32.97 µg/m3 22.56 µg/m3 0.62 mg/m3 11.62 °C 82.89 % 1,028.66 mbar 0.79 m/s 235.28 Deg 26.58 µg/m3 5.3 µg/m3
2022-01-19 23:00 64.26 µg/m3 1.4 µg/m3 4.06 µg/m3 29.88 µg/m3 20.06 µg/m3 0.68 mg/m3 12.22 °C 80.63 % 1,029.04 mbar 0.52 m/s 249.11 Deg 41.29 µg/m3 3.8 µg/m3
2022-01-19 22:00 36.46 µg/m3 0.87 µg/m3 39.79 µg/m3 16.52 µg/m3 12.59 µg/m3 0.38 mg/m3 12.59 °C 78.95 % 1,029.25 mbar 0.38 m/s 209.61 Deg 4.89 µg/m3 1.92 µg/m3
2022-01-19 21:00 38.48 µg/m3 0.82 µg/m3 39.5 µg/m3 13.98 µg/m3 11.22 µg/m3 0.37 mg/m3 13.01 °C 78.13 % 1,029.37 mbar 0.56 m/s 209.92 Deg 4.6 µg/m3 3.57 µg/m3
2022-01-19 20:00 57.89 µg/m3 0.96 µg/m3 24.38 µg/m3 16.13 µg/m3 12.88 µg/m3 0.47 mg/m3 13.23 °C 78.16 % 1,029.28 mbar 0.38 m/s 205.53 Deg 11.65 µg/m3 3.54 µg/m3
2022-01-19 19:00 75.16 µg/m3 1.32 µg/m3 11.14 µg/m3 13.9 µg/m3 11.28 µg/m3 0.46 mg/m3 12.92 °C 81.12 % 1,029.37 mbar 0.76 m/s 111 Deg 38.55 µg/m3 2.2 µg/m3
2022-01-19 18:00 39.71 µg/m3 1.15 µg/m3 50.96 µg/m3 13.4 µg/m3 9.75 µg/m3 0.42 mg/m3 13.26 °C 75.65 % 1,029.15 mbar 2.46 m/s 76.72 Deg 30.61 µg/m3 1.54 µg/m3
2022-01-19 17:00 39.29 µg/m3 1.24 µg/m3 51.53 µg/m3 20.84 µg/m3 10.81 µg/m3 0.43 mg/m3 14.68 °C 62.7 % 1,028.81 mbar 2.49 m/s 116.83 Deg 36.04 µg/m3 2.05 µg/m3
2022-01-19 16:00 29.24 µg/m3 1.13 µg/m3 60.07 µg/m3 20.25 µg/m3 9.14 µg/m3 0.32 mg/m3 15.17 °C 60.17 % 1,028.90 mbar 2.01 m/s 140.67 Deg 28.08 µg/m3 1.52 µg/m3
2022-01-19 15:00 32.22 µg/m3 1.11 µg/m3 60.17 µg/m3 28.13 µg/m3 9.59 µg/m3 0.5 mg/m3 15.51 °C 59.34 % 1,029.19 mbar 1.68 m/s 148.07 Deg 23.97 µg/m3 1.57 µg/m3
2022-01-19 14:00 34.34 µg/m3 1.29 µg/m3 54.23 µg/m3 37.18 µg/m3 11.8 µg/m3 0.36 mg/m3 15.23 °C 53.63 % 1,029.54 mbar 1.79 m/s 177.8 Deg 34.11 µg/m3 1.45 µg/m3
2022-01-19 13:00 39.18 µg/m3 1.32 µg/m3 57.02 µg/m3 49.82 µg/m3 12.11 µg/m3 0.39 mg/m3 15.11 °C 50.48 % 1,030.40 mbar 2.02 m/s 89.13 Deg 37.21 µg/m3 1.63 µg/m3
2022-01-19 12:00 42.75 µg/m3 1.35 µg/m3 51.95 µg/m3 21.96 µg/m3 8.77 µg/m3 0.38 mg/m3 14.88 °C 55.22 % 1,030.97 mbar 1.65 m/s 139.3 Deg 31.83 µg/m3 1.31 µg/m3
2022-01-19 11:00 45.32 µg/m3 1.7 µg/m3 45.96 µg/m3 28.05 µg/m3 11.42 µg/m3 0.4 mg/m3 14.42 °C 61.44 % 1,031.25 mbar 1.85 m/s 66.07 Deg 48.88 µg/m3 3.29 µg/m3
2022-01-19 10:00 83.38 µg/m3 2.49 µg/m3 7.55 µg/m3 67.35 µg/m3 24.46 µg/m3 0.67 mg/m3 13.82 °C 68.68 % 1,031.23 mbar 0.55 m/s 59.48 Deg 99.32 µg/m3 8.08 µg/m3
2022-01-19 09:00 83.77 µg/m3 2.74 µg/m3 4.31 µg/m3 102.11 µg/m3 32.34 µg/m3 1.03 mg/m3 13.03 °C 71.63 % 1,030.75 mbar 0.42 m/s 179.81 Deg 105.76 µg/m3 19.42 µg/m3
2022-01-19 08:00 81.85 µg/m3 3.9 µg/m3 6.64 µg/m3 51.29 µg/m3 34.22 µg/m3 1.42 mg/m3 12.73 °C 74.28 % 1,030.47 mbar 0.56 m/s 210.56 Deg 186.46 µg/m3 10.74 µg/m3

It is to be noted that the data is provisional and subject to quality assurance procedures. For validated data kindly refer your request to contact.air@era.org.mt